Kansas City, Missouri
Current Conditions -  °F | °C
As of 3:54 AM on Sunday 21 Dec 2014 (Local Time) from KMKC Reporting Station
Overcast Overcast  
Wind Chill: 32°   Ceiling: 2800
Heat Index: 38°   Visibility: 8mi
Dew Point: 34°   Wind: 8mph
Humidity: 86%   Direction: 190°S
Pressure: 30.09"   Gusts: NA
Location:  39.1°N, 94.58°W
Report Text: KMKC 210954Z 19007KT 8SM OVC028 03/01 A3009 RMK AO2 SLP193 T00330011
Loading
Personal Weather Stations






























Interactive Weather Map New forecast layout! Learn more

10-Day Weather Forecast

Advertisements
Track Severe Weather on mobile